Time;durP1;ratioP1;P1;durP2;ratioP2;P2;SDS_P1;SDS_P2;PMS_P1;PMS_P2;Temp;Humidity;BMP_temperature;BMP_pressure;BME280_temperature;BME280_humidity;BME280_pressure;Samples;Min_cycle;Max_cycle;Signal;HPM_P1;HPM_P2
2023/10/18 00:00:58;;;;;;;15.65;10.23;;;;;;;7.27;100.00;101327.72;5014152;28;20033;-73
2023/10/18 00:03:29;;;;;;;10.35;9.18;;;;;;;7.24;100.00;101319.09;5016500;28;20026;-73
2023/10/18 00:05:55;;;;;;;15.02;9.60;;;;;;;7.22;100.00;101320.88;5016714;28;20336;-73
2023/10/18 00:08:23;;;;;;;13.88;9.68;;;;;;;7.21;100.00;101313.97;5015933;28;20060;-73
2023/10/18 00:10:53;;;;;;;10.77;9.68;;;;;;;7.18;100.00;101314.00;5015410;28;20049;-73
2023/10/18 00:13:19;;;;;;;11.75;9.95;;;;;;;7.15;100.00;101308.84;5016332;28;20185;-73
2023/10/18 00:15:52;;;;;;;11.45;8.93;;;;;;;7.17;100.00;101310.56;5003777;28;20030;-73
2023/10/18 00:18:18;;;;;;;12.43;9.80;;;;;;;7.16;100.00;101311.44;5016447;28;20029;-73
2023/10/18 00:20:43;;;;;;;10.98;9.48;;;;;;;7.16;100.00;101313.19;5015339;28;20032;-73
2023/10/18 00:23:10;;;;;;;10.52;9.43;;;;;;;7.13;100.00;101308.03;5016049;28;20106;-73
2023/10/18 00:25:36;;;;;;;11.55;9.65;;;;;;;7.10;100.00;101301.16;5015559;28;20361;-73
2023/10/18 00:28:03;;;;;;;10.80;9.70;;;;;;;7.03;100.00;101303.00;5016340;28;20330;-73
2023/10/18 00:30:30;;;;;;;11.90;9.35;;;;;;;7.01;100.00;101291.75;5015839;28;20026;-73
2023/10/18 00:32:55;;;;;;;11.98;9.93;;;;;;;6.95;100.00;101286.66;5016341;28;20048;-73
2023/10/18 00:35:22;;;;;;;11.15;9.80;;;;;;;6.94;100.00;101289.31;5016181;28;20100;-73
2023/10/18 00:37:48;;;;;;;13.10;9.57;;;;;;;6.96;100.00;101293.56;5015586;28;20142;-73
2023/10/18 00:43:22;;;;;;;12.68;8.98;;;;;;;7.03;100.00;101297.78;5015836;28;20033;-73
2023/10/18 00:45:50;;;;;;;12.70;9.63;;;;;;;7.05;100.00;101288.19;5015426;28;20041;-73
2023/10/18 00:48:27;;;;;;;11.38;9.43;;;;;;;7.10;100.00;101290.72;5015970;28;20041;-73
2023/10/18 00:50:55;;;;;;;11.63;9.90;;;;;;;7.16;100.00;101288.00;5015820;28;20069;-73
2023/10/18 00:53:31;;;;;;;10.75;9.63;;;;;;;7.16;100.00;101289.75;5016043;28;20312;-73
2023/10/18 00:55:57;;;;;;;11.45;9.40;;;;;;;7.08;100.00;101282.94;5015593;28;20061;-73
2023/10/18 00:58:24;;;;;;;14.35;9.95;;;;;;;7.10;100.00;101281.16;5015669;28;20099;-73
2023/10/18 01:00:50;;;;;;;11.07;9.57;;;;;;;7.09;100.00;101283.78;5015217;28;20049;-73
2023/10/18 01:03:28;;;;;;;11.18;8.95;;;;;;;7.14;100.00;101281.97;5015601;28;20045;-73
2023/10/18 01:06:19;;;;;;;11.68;9.95;;;;;;;7.18;100.00;101282.75;4998701;28;20387;-73
2023/10/18 01:08:46;;;;;;;13.00;9.52;;;;;;;7.16;100.00;101279.31;4995434;28;20448;-72
2023/10/18 01:11:14;;;;;;;12.63;9.77;;;;;;;7.12;100.00;101260.28;4995860;28;20073;-72
2023/10/18 01:13:43;;;;;;;15.75;9.73;;;;;;;7.09;100.00;101265.56;4995140;28;20069;-72
2023/10/18 01:16:14;;;;;;;9.80;8.90;;;;;;;7.04;100.00;101264.78;4995861;28;20347;-72
2023/10/18 01:18:43;;;;;;;11.30;9.50;;;;;;;7.07;100.00;101256.91;4995086;28;20077;-72
2023/10/18 01:21:16;;;;;;;10.05;9.02;;;;;;;7.08;100.00;101256.03;4995251;28;20572;-72
2023/10/18 01:23:52;;;;;;;12.52;8.75;;;;;;;7.14;100.00;101255.06;4995105;28;20034;-72
2023/10/18 01:26:23;;;;;;;10.00;8.90;;;;;;;7.13;100.00;101242.91;5007594;28;20041;-72
2023/10/18 01:28:49;;;;;;;14.25;9.75;;;;;;;7.09;100.00;101239.50;5014454;28;20321;-72
2023/10/18 01:31:15;;;;;;;10.50;8.95;;;;;;;7.06;100.00;101240.44;5015304;28;20225;-72
2023/10/18 01:33:45;;;;;;;11.70;9.10;;;;;;;7.05;100.00;101236.09;5014414;28;20037;-72
2023/10/18 01:36:17;;;;;;;11.10;9.40;;;;;;;7.07;100.00;101231.72;5015347;28;20033;-72
2023/10/18 01:38:48;;;;;;;14.00;9.45;;;;;;;7.01;100.00;101226.66;5014648;28;20371;-72
2023/10/18 01:41:25;;;;;;;9.82;8.80;;;;;;;7.00;100.00;101229.28;5015126;28;20105;-72
2023/10/18 01:43:51;;;;;;;9.82;8.80;;;;;;;7.02;100.00;101219.69;5014459;28;20343;-72
2023/10/18 01:46:17;;;;;;;13.50;9.77;;;;;;;7.00;100.00;101214.50;5015096;28;20352;-72
2023/10/18 01:48:48;;;;;;;10.88;9.05;;;;;;;7.01;100.00;101212.78;5014573;28;20041;-72
2023/10/18 01:51:14;;;;;;;9.85;8.77;;;;;;;6.98;100.00;101212.81;5014698;28;20030;-72
2023/10/18 01:53:41;;;;;;;11.32;9.20;;;;;;;6.95;100.00;101205.94;5014416;28;20044;-72
2023/10/18 01:56:07;;;;;;;14.20;9.65;;;;;;;6.90;100.00;101202.56;5014472;28;20030;-72
2023/10/18 01:58:35;;;;;;;12.18;9.20;;;;;;;6.96;100.00;101205.03;5014586;28;20089;-72
2023/10/18 02:01:02;;;;;;;10.32;9.25;;;;;;;6.94;100.00;101203.38;5014651;28;20080;-72
2023/10/18 02:03:28;;;;;;;12.60;9.80;;;;;;;6.96;100.00;101194.63;5014232;28;20423;-72
2023/10/18 02:05:54;;;;;;;12.85;9.05;;;;;;;6.91;100.00;101192.13;5014882;28;20288;-72
2023/10/18 02:08:20;;;;;;;10.02;8.80;;;;;;;6.91;100.00;101192.13;5014337;28;20094;-72
2023/10/18 02:10:46;;;;;;;11.63;9.25;;;;;;;6.89;100.00;101187.81;5013966;28;20318;-72
2023/10/18 02:13:15;;;;;;;10.43;9.40;;;;;;;6.91;100.00;101186.91;5015152;28;20261;-72
2023/10/18 02:15:41;;;;;;;10.45;9.35;;;;;;;6.87;100.00;101189.59;5013913;28;20076;-72
2023/10/18 02:18:10;;;;;;;10.52;8.80;;;;;;;6.87;100.00;101184.41;5014713;28;20026;-72
2023/10/18 02:20:40;;;;;;;10.30;9.00;;;;;;;6.87;100.00;101182.63;5014001;28;20034;-72
2023/10/18 02:23:11;;;;;;;12.20;8.85;;;;;;;6.80;100.00;101178.44;5014755;28;20033;-72
2023/10/18 02:25:43;;;;;;;11.10;8.85;;;;;;;6.81;100.00;101171.50;5014229;28;20088;-72
2023/10/18 02:28:23;;;;;;;10.77;8.88;;;;;;;6.77;100.00;101173.31;5014567;28;20030;-72
2023/10/18 02:30:56;;;;;;;9.95;8.48;;;;;;;6.81;100.00;101158.50;5013874;28;20052;-72
2023/10/18 02:33:36;;;;;;;14.15;8.80;;;;;;;6.86;100.00;101156.66;5017301;28;20025;-72
2023/10/18 02:36:09;;;;;;;10.02;8.18;;;;;;;6.81;100.00;101163.69;5018320;28;20042;-72
2023/10/18 02:38:34;;;;;;;10.13;8.73;;;;;;;6.81;100.00;101166.31;5017388;28;20089;-72
2023/10/18 02:41:14;;;;;;;9.48;7.88;;;;;;;6.84;100.00;101169.72;5018247;28;20044;-72
2023/10/18 02:43:45;;;;;;;10.43;8.52;;;;;;;6.88;100.00;101168.75;5017856;28;20044;-72
2023/10/18 02:46:13;;;;;;;11.32;9.13;;;;;;;6.91;100.00;101160.00;5018084;28;20060;-72
2023/10/18 02:48:40;;;;;;;9.52;7.93;;;;;;;6.90;100.00;101153.94;5017833;28;20088;-72
2023/10/18 02:51:06;;;;;;;9.32;8.40;;;;;;;6.92;100.00;101149.56;5018188;28;20237;-72
2023/10/18 02:53:33;;;;;;;11.00;8.85;;;;;;;6.91;100.00;101147.88;5017691;28;20053;-72
2023/10/18 02:55:59;;;;;;;9.68;8.02;;;;;;;6.84;100.00;101140.19;5017811;28;20044;-72
2023/10/18 02:58:33;;;;;;;10.18;8.00;;;;;;;6.85;100.00;101134.97;5018429;28;20305;-72
2023/10/18 03:01:05;;;;;;;10.25;8.77;;;;;;;6.85;100.00;101137.56;5017890;28;20333;-72
2023/10/18 03:03:31;;;;;;;9.68;8.50;;;;;;;6.90;100.00;101129.66;5017277;28;20034;-72
2023/10/18 03:06:01;;;;;;;14.02;8.52;;;;;;;6.88;100.00;101119.28;5017794;28;20053;-72
2023/10/18 03:08:28;;;;;;;13.20;8.85;;;;;;;6.91;100.00;101124.44;5017501;28;20092;-72
2023/10/18 03:10:53;;;;;;;9.82;8.82;;;;;;;6.92;100.00;101117.47;5018089;28;20304;-72
2023/10/18 03:13:23;;;;;;;11.80;7.82;;;;;;;6.91;100.00;101113.13;5017584;28;20033;-72
2023/10/18 03:18:41;;;;;;;10.65;8.52;;;;;;;6.95;100.00;101114.81;5016983;28;20033;-72
2023/10/18 03:21:08;;;;;;;14.68;8.15;;;;;;;6.92;100.00;101105.31;5017836;28;20276;-72
2023/10/18 03:23:44;;;;;;;10.90;8.73;;;;;;;6.95;100.00;101093.09;5016829;28;20087;-72
2023/10/18 03:26:12;;;;;;;9.40;8.02;;;;;;;6.94;99.96;101086.19;5010265;28;20061;-72
2023/10/18 03:28:43;;;;;;;9.40;7.80;;;;;;;6.89;99.75;101084.56;4997357;28;20045;-72
2023/10/18 03:33:59;;;;;;;10.68;7.93;;;;;;;6.87;99.30;101075.03;4997978;28;20049;-72
2023/10/18 03:36:26;;;;;;;9.10;8.15;;;;;;;6.94;99.70;101068.81;4997836;28;20038;-72
2023/10/18 03:38:54;;;;;;;9.65;8.55;;;;;;;6.95;99.91;101070.53;4997370;28;20061;-72
2023/10/18 03:41:25;;;;;;;9.90;7.37;;;;;;;6.94;99.55;101066.22;4998043;28;20116;-72
2023/10/18 03:44:03;;;;;;;12.35;7.25;;;;;;;6.88;99.61;101067.22;4996581;28;20270;-72
2023/10/18 03:46:38;;;;;;;10.20;7.60;;;;;;;6.94;99.15;101060.16;4996903;28;20025;-72
2023/10/18 03:49:10;;;;;;;10.57;7.65;;;;;;;6.93;98.94;101056.72;4997716;28;20072;-72
2023/10/18 03:51:38;;;;;;;9.75;7.93;;;;;;;6.92;98.81;101042.81;4997144;28;20321;-72
2023/10/18 03:54:08;;;;;;;8.25;7.45;;;;;;;6.85;98.62;101049.03;4997581;28;20321;-72
2023/10/18 03:56:36;;;;;;;10.70;8.40;;;;;;;6.73;98.80;101047.56;5010815;28;20190;-72
2023/10/18 03:59:25;;;;;;;10.90;8.13;;;;;;;6.78;99.16;101052.66;5016956;28;20080;-72
2023/10/18 04:04:37;;;;;;;11.13;7.88;;;;;;;6.76;98.93;101049.25;5016281;28;20273;-72
2023/10/18 04:07:12;;;;;;;8.88;7.72;;;;;;;6.78;99.26;101047.47;5016668;28;20034;-72
2023/10/18 04:09:40;;;;;;;8.45;7.32;;;;;;;6.84;99.42;101049.06;5016113;28;20127;-72
2023/10/18 04:12:07;;;;;;;8.07;7.28;;;;;;;6.85;99.51;101048.19;5016492;28;20124;-72
2023/10/18 04:14:33;;;;;;;9.88;7.95;;;;;;;6.84;99.84;101041.25;5015932;28;20276;-72
2023/10/18 04:16:59;;;;;;;9.20;7.68;;;;;;;6.84;99.59;101038.66;5015283;28;20065;-72
2023/10/18 04:19:24;;;;;;;10.25;7.85;;;;;;;6.91;99.49;101041.13;5016607;28;20041;-72
2023/10/18 04:21:53;;;;;;;9.52;7.50;;;;;;;6.95;99.20;101035.81;5015939;28;20080;-72
2023/10/18 04:24:20;;;;;;;;;;;;;;;6.90;98.69;101023.78;5016831;28;20048;-72
2023/10/18 04:26:47;;;;;;;8.50;7.32;;;;;;;6.95;98.76;101023.69;5015900;28;20193;-72
2023/10/18 04:29:22;;;;;;;9.10;7.30;;;;;;;6.90;98.46;101026.38;5016270;28;20034;-72
2023/10/18 04:31:48;;;;;;;8.00;7.20;;;;;;;6.89;98.48;101029.88;5015853;28;20037;-72
2023/10/18 04:34:18;;;;;;;9.95;7.88;;;;;;;6.83;98.41;101016.97;5016053;28;20040;-72
2023/10/18 04:36:44;;;;;;;9.57;7.95;;;;;;;6.87;98.86;101015.16;5015525;28;20052;-72
2023/10/18 04:39:11;;;;;;;7.93;7.13;;;;;;;6.85;98.81;101016.94;5016080;28;20041;-72
2023/10/18 04:41:37;;;;;;;7.97;6.85;;;;;;;6.84;99.10;101008.28;5015516;28;20105;-72
2023/10/18 04:44:05;;;;;;;11.15;7.75;;;;;;;6.77;98.71;101006.72;5015889;28;20070;-72
2023/10/18 04:46:37;;;;;;;9.27;7.33;;;;;;;6.82;98.38;101006.59;5015181;28;20097;-71
2023/10/18 04:54:08;;;;;;;8.07;7.28;;;;;;;6.83;97.99;100985.75;5015931;28;20033;-72
2023/10/18 04:56:34;;;;;;;7.85;6.88;;;;;;;6.81;97.77;100981.47;5014188;28;20044;-72
2023/10/18 05:04:34;;;;;;;8.95;7.20;;;;;;;6.92;98.15;100958.66;5015595;28;20045;-72
2023/10/18 05:09:41;;;;;;;8.15;7.32;;;;;;;6.83;97.63;100949.28;5014060;28;20108;-72
2023/10/18 05:14:44;;;;;;;7.55;6.65;;;;;;;6.81;98.02;100953.69;5012566;28;20037;-72
2023/10/18 05:17:10;;;;;;;7.78;6.97;;;;;;;6.81;98.12;100953.69;5014285;28;20240;-72
2023/10/18 05:19:42;;;;;;;8.25;6.88;;;;;;;6.84;98.09;100944.94;5012318;28;20030;-72
2023/10/18 05:22:19;;;;;;;7.95;7.15;;;;;;;6.86;97.53;100938.81;5007278;28;20101;-72
2023/10/18 05:24:55;;;;;;;9.48;7.00;;;;;;;6.87;97.64;100934.47;5008388;28;20072;-72
2023/10/18 05:27:27;;;;;;;8.90;7.07;;;;;;;6.83;97.36;100932.84;5013878;28;20042;-72
2023/10/18 05:29:57;;;;;;;9.02;6.57;;;;;;;6.85;97.16;100931.88;5013154;28;20049;-72
2023/10/18 05:35:19;;;;;;;7.60;6.80;;;;;;;6.85;97.13;100928.44;5014924;28;20034;-72
2023/10/18 05:37:58;;;;;;;7.55;6.85;;;;;;;6.87;97.04;100921.44;5011474;28;20111;-72
2023/10/18 05:43:05;;;;;;;11.25;7.65;;;;;;;6.82;96.62;100905.06;5015050;28;20038;-72
2023/10/18 05:45:32;;;;;;;10.70;7.30;;;;;;;6.81;96.32;100905.97;5013921;28;20057;-72
2023/10/18 05:48:05;;;;;;;8.95;7.00;;;;;;;6.80;96.78;100918.13;5015291;28;20321;-72
2023/10/18 05:50:34;;;;;;;11.70;6.95;;;;;;;6.87;96.73;100913.63;5014763;28;20079;-72
2023/10/18 05:53:12;;;;;;;7.97;6.93;;;;;;;6.82;96.78;100911.16;5014530;28;20030;-72
2023/10/18 05:55:40;;;;;;;7.55;6.82;;;;;;;6.83;96.57;100902.44;5014056;28;20057;-72
2023/10/18 05:58:05;;;;;;;7.57;6.45;;;;;;;6.81;96.34;100898.19;5015082;28;20077;-72
2023/10/18 06:00:33;;;;;;;8.98;7.03;;;;;;;6.82;97.09;100892.06;5014306;28;20048;-72
2023/10/18 06:02:59;;;;;;;9.85;7.18;;;;;;;6.84;96.29;100898.97;5014419;28;20303;-72
2023/10/18 06:05:24;;;;;;;8.82;6.75;;;;;;;6.83;96.38;100904.19;5014333;28;20415;-72
2023/10/18 06:07:50;;;;;;;9.45;7.15;;;;;;;6.71;95.88;100900.13;5016284;28;20041;-72
2023/10/18 06:10:18;;;;;;;9.02;7.10;;;;;;;6.71;95.62;100898.41;5018657;28;20037;-72
2023/10/18 06:12:46;;;;;;;7.30;6.60;;;;;;;6.73;95.97;100894.00;5017765;28;20057;-72
2023/10/18 06:15:13;;;;;;;11.07;7.78;;;;;;;6.81;96.25;100885.16;5018439;28;20319;-72
2023/10/18 06:20:25;;;;;;;8.88;7.60;;;;;;;6.71;95.82;100877.56;5018901;28;20038;-72
2023/10/18 06:22:53;;;;;;;16.58;7.43;;;;;;;6.69;96.13;100876.75;5018678;28;20061;-72
2023/10/18 06:25:25;;;;;;;9.68;7.90;;;;;;;6.72;96.24;100871.47;5018569;28;20415;-72
2023/10/18 06:27:53;;;;;;;8.13;7.32;;;;;;;6.75;96.10;100874.88;5018413;28;20030;-72
2023/10/18 06:30:18;;;;;;;11.57;7.10;;;;;;;6.70;96.10;100872.41;5018248;28;20029;-72
2023/10/18 06:32:47;;;;;;;10.57;7.30;;;;;;;6.78;96.21;100867.00;5018621;28;20041;-72
2023/10/18 06:35:26;;;;;;;10.82;7.35;;;;;;;6.77;95.93;100860.06;5018629;28;20046;-72
2023/10/18 06:37:52;;;;;;;8.23;7.35;;;;;;;6.67;95.89;100864.66;5018466;28;20029;-72
2023/10/18 06:43:03;;;;;;;7.63;6.88;;;;;;;6.79;95.85;100842.69;5018291;28;20051;-72
2023/10/18 06:45:33;;;;;;;9.20;7.20;;;;;;;6.73;95.65;100841.94;5017639;28;20093;-72
2023/10/18 06:47:59;;;;;;;8.07;7.03;;;;;;;6.78;95.94;100839.22;5017998;28;20097;-72
2023/10/18 06:50:27;;;;;;;11.15;7.20;;;;;;;6.76;95.62;100838.41;5018150;28;20041;-72
2023/10/18 06:52:53;;;;;;;8.60;7.20;;;;;;;6.79;95.36;100834.88;5018235;28;20305;-72
2023/10/18 06:55:35;;;;;;;10.65;7.43;;;;;;;6.80;96.00;100836.59;5018386;28;20139;-72
2023/10/18 07:00:51;;;;;;;10.35;7.13;;;;;;;6.83;95.58;100841.72;5017180;28;20037;-72
2023/10/18 07:03:17;;;;;;;10.60;7.18;;;;;;;6.76;95.42;100833.19;5018196;28;20044;-72
2023/10/18 07:05:54;;;;;;;7.28;6.68;;;;;;;6.85;95.61;100834.72;5017418;28;20101;-72
2023/10/18 07:08:23;;;;;;;8.68;6.70;;;;;;;6.87;95.50;100828.56;5016406;28;20038;-72
2023/10/18 07:10:55;;;;;;;8.70;6.97;;;;;;;6.89;95.37;100833.75;5017397;28;20053;-72
2023/10/18 07:13:33;;;;;;;7.43;6.72;;;;;;;6.91;95.11;100826.75;5017553;28;20372;-72
2023/10/18 07:16:15;;;;;;;7.72;6.93;;;;;;;6.93;95.56;100830.19;5017537;28;20050;-72
2023/10/18 07:18:44;;;;;;;7.97;7.07;;;;;;;6.96;95.55;100819.66;5016122;28;20021;-72
2023/10/18 07:21:09;;;;;;;7.57;6.88;;;;;;;6.97;94.74;100825.72;5017941;28;20351;-72
2023/10/18 07:23:37;;;;;;;7.75;6.95;;;;;;;6.87;94.47;100815.56;5017010;28;20030;-72
2023/10/18 07:26:04;;;;;;;7.97;7.00;;;;;;;6.93;94.75;100817.16;5007864;28;20042;-72
2023/10/18 07:28:35;;;;;;;7.32;6.55;;;;;;;6.98;94.90;100817.88;4997347;28;20384;-72
2023/10/18 07:31:01;;;;;;;7.32;6.57;;;;;;;7.03;95.06;100815.16;4997827;28;20386;-72
2023/10/18 07:33:26;;;;;;;7.78;6.45;;;;;;;7.02;94.59;100808.25;4997267;28;20462;-72
2023/10/18 07:35:52;;;;;;;9.35;7.05;;;;;;;7.00;94.80;100807.44;4997792;28;20037;-72
2023/10/18 07:38:25;;;;;;;7.25;6.65;;;;;;;7.03;94.91;100808.22;4997374;28;20022;-72
2023/10/18 07:40:59;;;;;;;10.90;6.80;;;;;;;6.98;94.73;100806.63;4997112;28;20080;-72
2023/10/18 07:43:25;;;;;;;7.75;6.65;;;;;;;7.01;95.10;100801.34;4997357;28;20030;-72
2023/10/18 07:45:54;;;;;;;6.80;6.10;;;;;;;7.05;94.93;100806.41;4996696;28;20034;-72
2023/10/18 07:48:19;;;;;;;7.22;6.63;;;;;;;7.04;94.38;100796.91;5005830;28;20123;-72
2023/10/18 07:50:50;;;;;;;7.72;6.40;;;;;;;7.11;94.46;100794.97;5016522;28;20349;-72
2023/10/18 07:53:16;;;;;;;7.60;6.80;;;;;;;7.17;94.62;100788.75;5016302;28;20044;-72
2023/10/18 07:55:41;;;;;;;8.15;6.50;;;;;;;7.14;94.41;100776.66;5015153;28;20287;-74
2023/10/18 07:58:17;;;;;;;8.75;6.22;;;;;;;7.18;93.63;100778.28;5005975;28;20036;-72
2023/10/18 08:01:32;;;;;;;7.38;5.93;;;;;;;7.25;93.82;100778.97;5006853;28;20030;-72
2023/10/18 08:03:38;;;;;;;8.10;6.93;;;;;;;7.28;93.84;100784.97;5006701;28;20061;-72
2023/10/18 08:06:15;;;;;;;7.13;6.53;;;;;;;7.23;93.58;100767.75;5016419;28;20044;-72
2023/10/18 08:08:41;;;;;;;8.18;6.28;;;;;;;7.22;92.75;100766.03;5015063;28;20065;-74
2023/10/18 08:11:11;;;;;;;7.82;6.53;;;;;;;7.28;93.15;100773.69;5000293;28;20266;-72
2023/10/18 08:13:45;;;;;;;7.15;6.32;;;;;;;7.37;93.67;100777.75;5014915;28;20293;-72
2023/10/18 08:16:10;;;;;;;7.80;6.20;;;;;;;7.39;93.45;100771.63;5013282;28;20025;-72
2023/10/18 08:18:52;;;;;;;9.10;6.95;;;;;;;7.42;92.95;100768.94;5015053;28;20080;-73
2023/10/18 08:21:39;;;;;;;8.20;6.72;;;;;;;7.46;92.99;100762.75;5016014;28;20037;-72
2023/10/18 08:24:08;;;;;;;7.18;6.47;;;;;;;7.44;92.54;100756.72;5013192;28;20056;-72
2023/10/18 08:26:48;;;;;;;11.63;6.65;;;;;;;7.45;92.70;100742.78;5001628;28;20140;-72
2023/10/18 08:29:15;;;;;;;8.57;6.20;;;;;;;7.53;92.65;100744.31;5010273;28;20069;-72
2023/10/18 08:31:48;;;;;;;8.18;6.32;;;;;;;7.54;92.50;100748.63;4993016;28;20208;-72
2023/10/18 08:34:17;;;;;;;10.23;6.43;;;;;;;7.54;92.02;100735.59;4994384;28;20053;-72
2023/10/18 08:36:50;;;;;;;8.55;6.55;;;;;;;7.56;92.35;100736.41;4993478;28;20036;-72
2023/10/18 08:39:16;;;;;;;6.95;6.25;;;;;;;7.58;92.12;100740.66;4994244;28;20081;-72
2023/10/18 08:42:13;;;;;;;6.28;5.68;;;;;;;7.67;92.03;100729.13;4993691;28;20217;-72
2023/10/18 08:44:40;;;;;;;11.10;6.15;;;;;;;7.62;91.31;100725.78;5002342;28;20065;-72
2023/10/18 08:49:51;;;;;;;6.90;6.18;;;;;;;7.71;91.69;100722.06;4994073;28;20105;-72
2023/10/18 08:52:20;;;;;;;6.85;6.15;;;;;;;7.70;91.29;100716.00;4991162;28;20030;-72
2023/10/18 08:54:48;;;;;;;7.88;6.40;;;;;;;7.79;91.78;100707.88;5006838;28;20037;-72
2023/10/18 08:57:17;;;;;;;6.97;6.28;;;;;;;7.87;91.35;100702.44;5004444;28;20030;-72
2023/10/18 08:59:50;;;;;;;8.43;6.50;;;;;;;7.87;90.97;100705.03;4992725;28;20236;-73
2023/10/18 09:02:21;;;;;;;9.05;6.57;;;;;;;7.90;90.85;100701.50;5012897;28;20198;-72
2023/10/18 09:04:59;;;;;;;6.38;5.78;;;;;;;7.95;90.85;100699.56;5007200;28;20032;-72
2023/10/18 09:07:45;;;;;;;7.60;5.90;;;;;;;7.96;90.78;100685.66;5005717;28;20030;-72
2023/10/18 09:10:13;;;;;;;7.03;6.07;;;;;;;7.98;91.09;100679.47;5011995;28;20298;-72
2023/10/18 09:15:28;;;;;;;7.15;6.45;;;;;;;8.05;91.24;100677.50;5012707;28;20032;-72
2023/10/18 09:17:59;;;;;;;6.65;6.03;;;;;;;8.07;91.20;100671.34;5011298;28;20030;-72
2023/10/18 09:20:26;;;;;;;6.38;5.80;;;;;;;8.12;91.01;100670.34;5001363;28;20056;-72
2023/10/18 09:22:54;;;;;;;7.05;6.18;;;;;;;8.11;90.09;100671.25;4995032;28;20093;-72
2023/10/18 09:25:27;;;;;;;7.57;6.25;;;;;;;8.15;90.51;100665.00;5007838;28;20022;-72
2023/10/18 09:28:10;;;;;;;7.68;6.40;;;;;;;8.22;90.65;100654.34;4990243;28;20031;-72
2023/10/18 09:30:36;;;;;;;6.68;6.00;;;;;;;8.27;89.34;100651.56;4990902;28;20109;-72
2023/10/18 09:33:02;;;;;;;7.88;5.43;;;;;;;8.30;88.44;100645.41;4991219;28;20221;-72
2023/10/18 09:35:27;;;;;;;10.50;6.20;;;;;;;8.29;88.72;100634.09;4990814;28;20329;-72
2023/10/18 09:37:54;;;;;;;6.95;5.55;;;;;;;8.31;88.46;100627.06;4990408;28;20041;-72
2023/10/18 09:40:20;;;;;;;6.75;5.60;;;;;;;8.36;88.92;100619.09;4990418;28;20030;-72
2023/10/18 09:42:45;;;;;;;6.68;6.07;;;;;;;8.42;88.50;100625.00;4989134;28;20441;-72
2023/10/18 09:45:13;;;;;;;7.75;6.05;;;;;;;8.46;89.05;100612.69;4990080;28;20034;-72
2023/10/18 09:47:40;;;;;;;7.07;5.95;;;;;;;8.61;89.11;100608.66;4990351;28;20343;-72
2023/10/18 09:50:08;;;;;;;7.22;6.43;;;;;;;8.67;88.77;100599.75;4991509;28;20369;-73
2023/10/18 09:52:47;;;;;;;8.27;5.55;;;;;;;8.70;88.32;100594.44;4991305;28;20057;-72
2023/10/18 09:55:17;;;;;;;7.63;5.88;;;;;;;8.72;87.74;100595.22;5006489;28;20037;-72
2023/10/18 09:57:49;;;;;;;6.88;6.28;;;;;;;8.73;86.78;100599.53;4991072;28;20364;-73
2023/10/18 10:00:16;;;;;;;6.50;5.88;;;;;;;8.72;87.33;100590.84;4992197;28;20357;-72
2023/10/18 10:02:43;;;;;;;7.47;6.32;;;;;;;8.76;87.79;100584.59;4992015;28;20045;-72
2023/10/18 10:05:24;;;;;;;7.25;5.72;;;;;;;8.85;87.35;100588.63;4995039;28;20042;-73
2023/10/18 10:07:55;;;;;;;6.20;5.60;;;;;;;8.84;85.79;100581.69;4989682;28;20368;-72
2023/10/18 10:10:24;;;;;;;6.18;5.53;;;;;;;8.89;86.21;100571.94;5000699;28;20061;-72
2023/10/18 10:12:57;;;;;;;7.05;5.78;;;;;;;8.92;86.50;100568.38;5010178;28;20044;-72
2023/10/18 10:15:28;;;;;;;6.40;5.80;;;;;;;8.97;86.83;100564.66;4992599;28;20037;-72
2023/10/18 10:17:57;;;;;;;5.72;5.22;;;;;;;9.02;87.03;100554.03;4998755;28;20041;-72
2023/10/18 10:20:31;;;;;;;5.97;5.40;;;;;;;9.07;87.60;100551.25;5010087;28;20025;-72
2023/10/18 10:23:02;;;;;;;7.93;6.80;;;;;;;9.09;87.09;100546.81;5007163;28;20038;-72
2023/10/18 10:25:34;;;;;;;6.38;5.63;;;;;;;9.12;86.80;100547.53;5005182;28;20217;-73
2023/10/18 10:28:14;;;;;;;6.22;5.72;;;;;;;9.15;87.04;100543.94;5005717;28;20408;-72
2023/10/18 10:30:46;;;;;;;7.63;5.85;;;;;;;9.23;87.12;100545.34;5010735;28;20021;-72
2023/10/18 10:33:14;;;;;;;8.73;6.10;;;;;;;9.32;87.09;100538.91;5004297;28;20340;-73
2023/10/18 10:35:47;;;;;;;7.82;6.15;;;;;;;9.37;87.13;100530.91;5005849;28;20029;-73
2023/10/18 10:38:19;;;;;;;8.82;5.63;;;;;;;9.41;87.20;100528.09;5009576;28;20026;-73
2023/10/18 10:41:04;;;;;;;6.30;5.65;;;;;;;9.45;87.80;100515.75;5008287;28;20418;-73
2023/10/18 10:44:11;;;;;;;6.80;5.75;;;;;;;9.52;86.30;100513.72;5007143;28;20022;-73
2023/10/18 10:46:37;;;;;;;6.65;5.93;;;;;;;9.57;86.60;100507.41;4991826;28;20333;-73
2023/10/18 10:49:28;;;;;;;6.28;5.68;;;;;;;9.67;86.65;100491.31;4996800;28;20370;-73
2023/10/18 10:51:56;;;;;;;6.43;5.78;;;;;;;9.73;86.29;100486.69;5002715;28;20065;-73
2023/10/18 10:54:26;;;;;;;8.93;5.95;;;;;;;9.78;86.95;100483.84;5014340;28;20062;-73
2023/10/18 10:56:54;;;;;;;6.40;5.80;;;;;;;9.78;85.74;100491.69;5014237;28;20105;-73
2023/10/18 10:59:21;;;;;;;9.48;5.32;;;;;;;9.80;85.99;100484.63;5013762;28;20289;-73
2023/10/18 11:04:27;;;;;;;9.80;6.05;;;;;;;9.90;85.94;100472.88;5013083;28;20101;-73
2023/10/18 11:06:57;;;;;;;7.18;6.20;;;;;;;9.98;85.57;100462.06;5012913;28;20037;-73
2023/10/18 11:09:34;;;;;;;11.48;6.20;;;;;;;10.04;85.53;100464.44;5008268;28;20046;-73
2023/10/18 11:12:17;;;;;;;6.65;5.32;;;;;;;10.11;84.74;100457.13;4994421;28;20381;-73
2023/10/18 11:14:44;;;;;;;5.95;5.00;;;;;;;10.15;84.68;100450.84;4994664;28;20236;-73
2023/10/18 11:19:51;;;;;;;6.60;5.97;;;;;;;10.17;85.36;100421.09;4995070;28;20034;-73
2023/10/18 11:22:20;;;;;;;8.23;5.38;;;;;;;10.22;85.67;100420.03;4995916;28;20406;-73
2023/10/18 11:24:49;;;;;;;6.95;5.60;;;;;;;10.23;84.99;100417.34;4994883;28;20206;-73
2023/10/18 11:27:17;;;;;;;11.30;5.53;;;;;;;10.27;84.73;100407.56;4994743;28;20030;-73
2023/10/18 11:29:43;;;;;;;7.05;5.95;;;;;;;10.27;84.67;100407.56;5004497;28;20027;-73
2023/10/18 11:32:18;;;;;;;8.00;5.97;;;;;;;10.34;84.80;100391.53;4992656;28;20241;-73
2023/10/18 11:34:46;;;;;;;10.55;6.07;;;;;;;10.37;84.64;100387.94;4996910;28;20123;-73
2023/10/18 11:37:34;;;;;;;10.95;6.50;;;;;;;10.35;85.01;100380.16;4994102;28;20388;-73
2023/10/18 11:40:14;;;;;;;6.10;5.57;;;;;;;10.36;85.07;100379.22;4993246;28;20034;-73
2023/10/18 11:42:55;;;;;;;7.57;5.22;;;;;;;10.41;85.28;100376.41;4994034;28;20061;-73
2023/10/18 11:45:21;;;;;;;6.80;6.20;;;;;;;10.48;85.43;100369.13;4995090;28;20068;-73
2023/10/18 11:47:50;;;;;;;8.15;5.65;;;;;;;10.50;85.29;100360.25;4996596;28;20101;-73
2023/10/18 11:50:16;;;;;;;;;;;;;;;10.54;84.68;100353.94;5014782;28;20225;-73
2023/10/18 11:52:41;;;;;;;11.30;6.22;;;;;;;10.58;84.86;100349.41;5012135;28;20251;-73
2023/10/18 11:55:10;;;;;;;5.82;5.30;;;;;;;10.59;84.23;100347.63;5004465;28;20033;-73
2023/10/18 11:57:39;;;;;;;12.35;5.60;;;;;;;10.64;84.92;100349.13;5013060;28;20033;-73
2023/10/18 12:00:28;;;;;;;6.78;5.80;;;;;;;10.66;84.63;100344.66;5013947;28;20337;-73
2023/10/18 12:02:53;;;;;;;7.53;5.30;;;;;;;10.71;85.21;100340.03;5013593;28;20034;-73
2023/10/18 12:05:27;;;;;;;6.10;5.60;;;;;;;10.73;85.52;100332.09;5013926;28;20394;-73
2023/10/18 12:07:56;;;;;;;8.38;6.00;;;;;;;10.78;86.06;100334.50;5014371;28;20030;-73
2023/10/18 12:10:26;;;;;;;8.57;5.97;;;;;;;10.85;85.13;100331.47;5014511;28;20264;-73
2023/10/18 12:12:55;;;;;;;8.55;6.30;;;;;;;10.94;84.40;100319.72;5003570;28;20213;-73
2023/10/18 12:15:23;;;;;;;5.68;5.18;;;;;;;10.93;83.98;100315.38;5011305;28;20088;-73
2023/10/18 12:17:51;;;;;;;6.93;5.80;;;;;;;10.95;84.65;100313.53;5011585;28;20072;-73
2023/10/18 12:20:25;;;;;;;7.20;5.65;;;;;;;11.00;84.85;100308.91;5012567;28;20041;-73
2023/10/18 12:22:51;;;;;;;10.50;5.75;;;;;;;11.02;84.86;100306.22;5012271;28;20029;-73
2023/10/18 12:25:20;;;;;;;6.32;5.80;;;;;;;11.04;84.88;100299.97;5010955;28;20365;-73
2023/10/18 12:27:52;;;;;;;6.75;5.88;;;;;;;11.06;84.60;100297.25;5010312;28;20081;-73
2023/10/18 12:30:37;;;;;;;6.22;5.72;;;;;;;11.11;84.86;100283.03;5011251;28;20065;-73
2023/10/18 12:33:06;;;;;;;7.35;5.78;;;;;;;11.17;84.82;100279.22;5010773;28;20037;-73